createdAt,value
2023-07-05T00:04:27.018Z,14.80
2023-07-05T00:09:30.899Z,14.60
2023-07-05T00:14:34.745Z,15.00
2023-07-05T00:19:38.486Z,15.10
2023-07-05T00:24:42.333Z,15.20
2023-07-05T00:29:46.211Z,15.60
2023-07-05T00:34:50.087Z,16.10
2023-07-05T00:39:54.003Z,14.30
2023-07-05T00:45:13.261Z,15.50
2023-07-05T00:50:26.302Z,15.20
2023-07-05T00:55:30.462Z,16.50
2023-07-05T01:00:34.335Z,17.90
2023-07-05T01:05:39.019Z,16.10
2023-07-05T01:10:48.700Z,15.80
2023-07-05T01:16:23.638Z,15.80
2023-07-05T01:21:49.769Z,19.30
2023-07-05T01:27:11.688Z,18.40
2023-07-05T01:37:29.919Z,16.70
2023-07-05T01:42:35.734Z,16.80
2023-07-05T01:47:54.666Z,18.00
2023-07-05T01:53:09.222Z,18.60
2023-07-05T01:58:16.535Z,20.20
2023-07-05T02:03:23.683Z,18.90
2023-07-05T02:08:31.236Z,18.20
2023-07-05T02:13:35.071Z,17.80
2023-07-05T02:18:41.293Z,18.40
2023-07-05T02:23:45.427Z,17.40
2023-07-05T02:28:50.543Z,19.10
2023-07-05T02:33:54.904Z,19.30
2023-07-05T02:39:00.940Z,19.70
2023-07-05T02:44:05.321Z,19.80
2023-07-05T02:49:10.160Z,20.40
2023-07-05T02:54:14.507Z,21.60
2023-07-05T02:59:18.521Z,20.90
2023-07-05T03:04:22.499Z,20.00
2023-07-05T03:09:26.420Z,19.70
2023-07-05T03:14:30.328Z,19.10
2023-07-05T03:19:34.456Z,19.00
2023-07-05T03:24:38.512Z,19.60
2023-07-05T03:29:42.399Z,18.90
2023-07-05T03:34:46.328Z,19.30
2023-07-05T03:39:54.453Z,18.50
2023-07-05T03:44:58.437Z,19.00
2023-07-05T03:50:02.331Z,19.40
2023-07-05T03:55:07.291Z,18.90
2023-07-05T04:00:12.064Z,19.40
2023-07-05T04:05:20.260Z,18.40
2023-07-05T04:10:26.905Z,20.20
2023-07-05T04:15:30.718Z,19.60
2023-07-05T04:20:34.566Z,17.20
2023-07-05T04:25:38.440Z,19.50
2023-07-05T04:30:42.250Z,18.40
2023-07-05T04:35:54.316Z,18.30
2023-07-05T04:40:59.707Z,18.20
2023-07-05T04:46:03.740Z,18.20
2023-07-05T04:51:07.681Z,18.90
2023-07-05T04:56:14.001Z,18.20
2023-07-05T05:01:19.837Z,18.80
2023-07-05T05:06:24.116Z,18.90
2023-07-05T05:11:30.595Z,19.20
2023-07-05T05:16:34.503Z,18.80
2023-07-05T05:21:38.910Z,18.90
2023-07-05T05:26:42.750Z,18.70
2023-07-05T05:31:46.520Z,19.00
2023-07-05T05:36:51.838Z,18.30
2023-07-05T05:41:55.684Z,19.10
2023-07-05T05:46:59.549Z,19.10
2023-07-05T05:52:03.617Z,19.80
2023-07-05T05:57:08.234Z,17.90
2023-07-05T06:02:12.364Z,18.90
2023-07-05T06:07:19.997Z,18.50
2023-07-05T06:12:24.614Z,18.50
2023-07-05T06:17:28.445Z,18.50
2023-07-05T06:22:33.916Z,19.60
2023-07-05T06:27:38.669Z,19.30
2023-07-05T06:32:45.101Z,19.40
2023-07-05T06:37:48.973Z,19.30
2023-07-05T06:42:53.864Z,18.80
2023-07-05T06:47:59.043Z,17.90
2023-07-05T06:53:23.201Z,16.90
2023-07-05T06:58:33.693Z,16.30
2023-07-05T07:03:37.911Z,16.30
2023-07-05T07:08:41.786Z,16.20
2023-07-05T07:13:45.721Z,16.30
2023-07-05T07:18:51.496Z,15.60
2023-07-05T07:23:55.267Z,16.60
2023-07-05T07:28:59.161Z,15.10
2023-07-05T07:34:04.862Z,14.70
2023-07-05T07:39:09.697Z,14.40
2023-07-05T07:44:14.617Z,13.20
2023-07-05T07:49:18.618Z,13.30
2023-07-05T07:54:27.427Z,12.90
2023-07-05T07:59:31.234Z,12.00
2023-07-05T08:04:35.201Z,11.90
2023-07-05T08:09:39.350Z,11.20
2023-07-05T08:14:43.132Z,12.30
2023-07-05T08:19:48.627Z,10.30
2023-07-05T08:24:53.131Z,10.20
2023-07-05T08:29:57.090Z,10.80
2023-07-05T08:35:00.878Z,10.70
2023-07-05T08:40:08.916Z,9.10
2023-07-05T08:45:12.910Z,8.50
2023-07-05T08:50:28.974Z,8.90
2023-07-05T08:55:55.601Z,8.10
2023-07-05T09:01:11.629Z,7.60
2023-07-05T09:06:23.218Z,8.10
2023-07-05T09:11:59.005Z,7.30
2023-07-05T09:17:10.485Z,6.80
2023-07-05T09:22:20.837Z,7.40
2023-07-05T09:27:28.725Z,7.20
2023-07-05T09:32:37.076Z,7.00
2023-07-05T09:37:45.515Z,6.50
2023-07-05T09:43:03.638Z,5.90
2023-07-05T09:48:12.509Z,6.00
2023-07-05T09:53:34.817Z,6.20
2023-07-05T09:58:40.116Z,6.30
2023-07-05T10:03:55.726Z,5.10
2023-07-05T10:09:12.438Z,5.20
2023-07-05T10:14:18.946Z,5.40
2023-07-05T10:19:32.319Z,4.80
2023-07-05T10:24:47.900Z,4.40
2023-07-05T10:29:59.181Z,5.00
2023-07-05T10:35:03.458Z,5.00
2023-07-05T10:40:11.110Z,5.10
2023-07-05T10:45:16.601Z,5.20
2023-07-05T10:50:35.129Z,5.20
2023-07-05T10:56:07.208Z,4.90
2023-07-05T11:01:19.858Z,5.50
2023-07-05T11:06:24.876Z,5.30
2023-07-05T11:11:32.121Z,5.00
2023-07-05T11:16:36.226Z,4.60
2023-07-05T11:21:46.305Z,5.20
2023-07-05T11:26:50.264Z,4.80
2023-07-05T11:32:14.244Z,5.50
2023-07-05T11:37:18.020Z,6.20
2023-07-05T11:42:22.916Z,5.30
2023-07-05T11:47:26.730Z,4.60
2023-07-05T11:52:33.932Z,4.90
2023-07-05T11:57:46.356Z,5.20
2023-07-05T12:03:01.568Z,3.90
2023-07-05T12:08:14.666Z,3.80
2023-07-05T12:13:26.404Z,4.20
2023-07-05T12:18:32.498Z,4.00
2023-07-05T12:23:37.733Z,5.00
2023-07-05T12:28:44.256Z,4.80
2023-07-05T12:33:56.551Z,4.30
2023-07-05T12:39:09.157Z,4.60
2023-07-05T12:44:20.258Z,4.10
2023-07-05T12:49:30.244Z,3.60
2023-07-05T12:54:43.083Z,3.50
2023-07-05T13:00:04.948Z,3.70
2023-07-05T13:05:21.882Z,3.50
2023-07-05T13:10:30.361Z,3.80
2023-07-05T13:15:38.837Z,4.70
2023-07-05T13:20:50.438Z,3.80
2023-07-05T13:25:54.471Z,3.40
2023-07-05T13:31:04.750Z,3.40
2023-07-05T13:36:09.524Z,3.30
2023-07-05T13:41:13.340Z,3.70
2023-07-05T13:46:17.641Z,3.70
2023-07-05T13:51:30.528Z,3.60
2023-07-05T13:56:37.607Z,3.10
2023-07-05T14:01:49.523Z,3.30
2023-07-05T14:06:54.867Z,3.10
2023-07-05T14:12:00.872Z,12.10
2023-07-05T14:17:05.675Z,5.00
2023-07-05T14:22:20.677Z,3.30
2023-07-05T14:27:25.719Z,4.10
2023-07-05T14:32:29.697Z,4.40
2023-07-05T14:37:36.866Z,3.50
2023-07-05T14:42:41.448Z,3.60
2023-07-05T14:47:52.708Z,3.30
2023-07-05T14:52:58.741Z,3.40
2023-07-05T14:58:03.230Z,3.60
2023-07-05T15:03:10.234Z,3.40
2023-07-05T15:08:15.379Z,3.70
2023-07-05T15:13:22.299Z,4.40
2023-07-05T15:18:26.110Z,4.00
2023-07-05T15:23:37.049Z,3.60
2023-07-05T15:28:41.821Z,4.10
2023-07-05T15:33:45.863Z,4.00
2023-07-05T15:38:50.549Z,3.60
2023-07-05T15:43:54.397Z,3.50
2023-07-05T15:48:58.554Z,4.20
2023-07-05T15:54:03.275Z,3.50
2023-07-05T15:59:14.181Z,3.60
2023-07-05T16:04:18.001Z,3.60
2023-07-05T16:09:22.258Z,3.30
2023-07-05T16:14:30.152Z,3.70
2023-07-05T16:19:40.572Z,3.60
2023-07-05T16:24:46.577Z,3.10
2023-07-05T16:29:53.983Z,3.40
2023-07-05T16:34:58.094Z,3.40
2023-07-05T16:40:05.562Z,3.70
2023-07-05T16:45:13.860Z,3.70
2023-07-05T16:50:18.426Z,3.70
2023-07-05T16:55:23.282Z,3.90
2023-07-05T17:00:30.358Z,3.00
2023-07-05T17:05:35.596Z,3.50
2023-07-05T17:10:40.064Z,3.80
2023-07-05T17:15:44.493Z,3.70
2023-07-05T17:21:00.549Z,3.20
2023-07-05T17:26:11.885Z,3.90
2023-07-05T17:31:22.552Z,3.90
2023-07-05T17:36:28.621Z,3.80
2023-07-05T17:41:33.822Z,3.80
2023-07-05T17:46:44.720Z,3.50
2023-07-05T17:51:49.361Z,3.80
2023-07-05T17:56:53.342Z,3.70
2023-07-05T18:01:57.983Z,3.40
2023-07-05T18:07:03.070Z,3.60
2023-07-05T18:12:07.996Z,3.60
2023-07-05T18:17:12.855Z,3.40
2023-07-05T18:22:17.725Z,3.70
2023-07-05T18:27:22.359Z,3.40
2023-07-05T18:32:26.779Z,3.00
2023-07-05T18:37:32.644Z,3.40
2023-07-05T18:42:37.152Z,2.90
2023-07-05T18:47:42.109Z,2.60
2023-07-05T18:52:46.875Z,2.70
2023-07-05T18:57:51.306Z,2.70
2023-07-05T19:02:55.885Z,3.20
2023-07-05T19:08:00.433Z,2.60
2023-07-05T19:13:04.798Z,3.10
2023-07-05T19:18:10.060Z,2.50
2023-07-05T19:23:15.749Z,2.70
2023-07-05T19:28:19.672Z,2.80
2023-07-05T19:33:23.745Z,3.20
2023-07-05T19:38:28.025Z,2.70
2023-07-05T19:43:34.179Z,3.80
2023-07-05T19:48:38.825Z,3.60
2023-07-05T19:53:46.320Z,2.70
2023-07-05T19:58:51.378Z,3.00
2023-07-05T20:03:56.253Z,3.50
2023-07-05T20:09:05.223Z,5.00
2023-07-05T20:14:10.869Z,4.20
2023-07-05T20:19:16.098Z,3.90
2023-07-05T20:24:20.855Z,4.30
2023-07-05T20:29:25.135Z,3.90
2023-07-05T20:34:29.436Z,4.00
2023-07-05T20:39:33.161Z,4.00
2023-07-05T20:44:37.082Z,4.10
2023-07-05T20:49:40.918Z,4.10
2023-07-05T20:54:51.157Z,4.70
2023-07-05T20:59:56.058Z,4.70
2023-07-05T21:04:59.801Z,4.50
2023-07-05T21:10:03.657Z,5.10
2023-07-05T21:15:08.843Z,5.10
2023-07-05T21:20:13.318Z,4.60
2023-07-05T21:25:17.606Z,5.00
2023-07-05T21:30:21.309Z,4.70
2023-07-05T21:35:31.113Z,4.50
2023-07-05T21:40:38.455Z,4.50
2023-07-05T21:45:46.636Z,3.90
2023-07-05T21:50:51.779Z,4.10
2023-07-05T21:56:03.620Z,4.30
2023-07-05T22:01:09.763Z,3.80
2023-07-05T22:06:13.719Z,4.40
2023-07-05T22:11:17.685Z,4.20
2023-07-05T22:16:21.753Z,4.50
2023-07-05T22:21:26.503Z,4.30
2023-07-05T22:26:30.301Z,4.60
2023-07-05T22:31:35.087Z,4.50
2023-07-05T22:36:39.753Z,5.30
2023-07-05T22:41:43.403Z,4.90
2023-07-05T22:46:47.194Z,4.70
2023-07-05T22:51:53.207Z,4.80
2023-07-05T22:56:58.394Z,4.50
2023-07-05T23:02:05.184Z,4.70
2023-07-05T23:07:09.420Z,4.40
2023-07-05T23:12:13.349Z,4.30
2023-07-05T23:17:17.194Z,4.30
2023-07-05T23:22:21.074Z,3.70
2023-07-05T23:27:24.900Z,4.00
2023-07-05T23:32:29.924Z,3.70
2023-07-05T23:37:33.698Z,3.60
2023-07-05T23:42:38.789Z,3.30
2023-07-05T23:47:42.902Z,3.70
2023-07-05T23:52:46.801Z,3.60
2023-07-05T23:57:50.580Z,3.80
